Time;durP1;ratioP1;P1;durP2;ratioP2;P2;SDS_P1;SDS_P2;PMS_P1;PMS_P2;Temp;Humidity;BMP_temperature;BMP_pressure;BME280_temperature;BME280_humidity;BME280_pressure;Samples;Min_cycle;Max_cycle;Signal;HPM_P1;HPM_P2
2023/09/19 00:01:20;;;;;;;8.40;4.78;;;;;;;17.66;74.41;100479.63;5053677;28;20123;-84
2023/09/19 00:03:46;;;;;;;8.35;4.90;;;;;;;17.63;73.83;100486.34;5052086;28;20032;-82
2023/09/19 00:06:15;;;;;;;11.50;5.15;;;;;;;17.76;74.56;100497.78;5053591;28;20025;-82
2023/09/19 00:08:44;;;;;;;10.38;4.85;;;;;;;17.83;75.43;100482.22;5055622;28;20110;-82
2023/09/19 00:11:11;;;;;;;6.90;4.38;;;;;;;17.77;73.63;100477.84;5052458;28;20029;-83
2023/09/19 00:13:36;;;;;;;14.75;5.85;;;;;;;16.32;72.83;100485.25;5051572;28;20036;-83
2023/09/19 00:16:10;;;;;;;9.93;5.22;;;;;;;16.07;77.02;100502.66;5058946;28;20052;-83
2023/09/19 00:18:36;;;;;;;12.05;5.32;;;;;;;16.61;76.49;100479.75;5065847;28;20028;-82
2023/09/19 00:21:01;;;;;;;8.50;5.00;;;;;;;16.93;76.45;100497.97;5053717;28;20037;-82
2023/09/19 00:23:28;;;;;;;12.23;6.10;;;;;;;16.54;76.03;100487.19;5053459;28;20019;-83
2023/09/19 00:25:57;;;;;;;9.45;5.00;;;;;;;16.15;75.12;100487.16;5052603;28;20569;-83
2023/09/19 00:28:22;;;;;;;7.72;4.40;;;;;;;15.75;79.72;100488.13;5054444;28;20099;-82
2023/09/19 00:30:50;;;;;;;11.55;5.25;;;;;;;16.58;76.33;100485.63;5053685;28;20149;-83
2023/09/19 00:33:16;;;;;;;7.82;4.20;;;;;;;17.45;74.56;100492.09;5059177;28;20036;-82
2023/09/19 00:35:49;;;;;;;7.72;4.65;;;;;;;17.53;72.53;100483.56;5070507;28;20036;-82
2023/09/19 00:38:16;;;;;;;18.75;7.70;;;;;;;17.75;72.03;100471.88;5052935;28;20029;-83
2023/09/19 00:40:46;;;;;;;18.20;7.47;;;;;;;17.74;71.70;100471.06;5051733;28;20067;-83
2023/09/19 00:43:11;;;;;;;11.90;5.97;;;;;;;17.68;73.83;100480.19;5057069;28;20090;-82
2023/09/19 00:45:42;;;;;;;8.98;5.38;;;;;;;17.54;74.19;100465.50;5072937;28;20024;-83
2023/09/19 00:48:09;;;;;;;8.93;4.85;;;;;;;17.61;74.17;100483.09;5072265;28;20107;-84
2023/09/19 00:50:35;;;;;;;9.40;5.20;;;;;;;17.48;75.16;100448.44;5052680;28;20037;-82
2023/09/19 00:53:01;;;;;;;10.80;5.65;;;;;;;17.23;76.01;100460.59;5054738;28;20493;-82
2023/09/19 00:55:29;;;;;;;7.88;4.85;;;;;;;16.83;76.03;100464.44;5071129;28;20036;-82
2023/09/19 00:57:56;;;;;;;8.18;5.07;;;;;;;16.70;76.58;100456.72;5072575;28;20050;-82
2023/09/19 01:00:23;;;;;;;7.90;5.45;;;;;;;16.22;78.29;100474.34;5053259;28;20035;-86
2023/09/19 01:02:49;;;;;;;7.90;5.38;;;;;;;16.03;81.72;100490.75;5052920;28;20733;-82
2023/09/19 01:05:15;;;;;;;8.10;5.35;;;;;;;17.07;76.78;100488.44;5070522;28;20046;-83
2023/09/19 01:07:41;;;;;;;9.02;5.45;;;;;;;17.14;75.70;100489.09;5072407;28;20035;-82
2023/09/19 01:10:10;;;;;;;8.63;5.38;;;;;;;16.84;76.09;100458.00;5059820;28;20033;-83
2023/09/19 01:12:51;;;;;;;13.57;6.50;;;;;;;16.86;76.03;100461.25;5051334;28;20021;-81
2023/09/19 01:15:35;;;;;;;16.63;8.13;;;;;;;17.50;75.48;100492.16;5052279;28;20048;-82
2023/09/19 01:18:07;;;;;;;14.80;7.30;;;;;;;17.11;73.95;100494.97;5050987;28;20409;-82
2023/09/19 01:20:41;;;;;;;11.02;6.55;;;;;;;17.01;74.62;100489.44;5052218;28;20119;-82
2023/09/19 01:23:27;;;;;;;10.65;5.88;;;;;;;17.43;74.94;100481.56;5051162;28;20512;-82
2023/09/19 01:26:02;;;;;;;10.30;6.07;;;;;;;17.52;73.63;100490.00;5070875;28;20036;-84
2023/09/19 01:28:42;;;;;;;9.00;5.43;;;;;;;17.50;71.96;100489.44;5070875;28;20029;-83
2023/09/19 01:31:10;;;;;;;10.52;5.68;;;;;;;17.34;74.12;100476.88;5053853;28;20033;-82
2023/09/19 01:33:59;;;;;;;11.88;6.50;;;;;;;17.40;73.86;100487.47;5051168;28;20032;-85
2023/09/19 01:36:25;;;;;;;11.73;6.13;;;;;;;17.30;75.00;100470.38;5052396;28;20033;-85
2023/09/19 01:38:52;;;;;;;11.13;5.68;;;;;;;17.27;74.87;100456.34;5051892;28;20033;-82
2023/09/19 01:41:26;;;;;;;10.52;6.53;;;;;;;17.20;74.23;100466.50;5051079;28;20054;-82
2023/09/19 01:43:52;;;;;;;11.57;6.10;;;;;;;16.85;76.23;100461.50;5051951;28;20031;-82
2023/09/19 01:46:37;;;;;;;10.68;6.10;;;;;;;16.52;76.28;100470.47;5050476;28;20032;-82
2023/09/19 01:49:46;;;;;;;12.85;6.78;;;;;;;16.63;78.03;100450.69;5032388;28;20026;-82
2023/09/19 01:52:13;;;;;;;10.35;6.18;;;;;;;16.96;73.99;100455.19;5008970;28;20045;-81
2023/09/19 01:55:07;;;;;;;9.07;5.82;;;;;;;16.99;75.46;100467.34;5056874;28;20043;-83
2023/09/19 01:58:04;;;;;;;10.13;5.97;;;;;;;16.74;75.53;100457.84;5071496;28;20040;-82
2023/09/19 02:00:34;;;;;;;10.10;6.22;;;;;;;16.95;74.87;100471.59;5049244;28;20048;-82
2023/09/19 02:02:59;;;;;;;15.75;8.68;;;;;;;16.51;74.61;100466.13;5065830;28;20417;-82
2023/09/19 02:05:27;;;;;;;16.08;8.68;;;;;;;16.58;77.68;100450.63;5057702;28;20473;-86
2023/09/19 02:07:53;;;;;;;17.23;7.80;;;;;;;16.81;75.37;100471.97;5049886;28;20025;-83
2023/09/19 02:10:19;;;;;;;14.68;7.97;;;;;;;16.63;76.01;100448.00;5049989;28;20029;-82
2023/09/19 02:12:45;;;;;;;11.30;6.30;;;;;;;16.53;78.09;100448.69;5051507;28;20077;-82
2023/09/19 02:15:10;;;;;;;11.27;6.57;;;;;;;16.57;78.85;100478.59;5059673;28;20504;-82
2023/09/19 02:17:36;;;;;;;14.65;6.75;;;;;;;16.54;78.29;100452.19;5070944;28;20036;-82
2023/09/19 02:20:03;;;;;;;11.45;6.65;;;;;;;16.53;78.33;100464.84;5067125;28;20120;-84
2023/09/19 02:22:29;;;;;;;9.33;6.10;;;;;;;16.45;78.62;100436.47;5051336;28;20029;-82
2023/09/19 02:24:58;;;;;;;10.93;5.95;;;;;;;16.45;77.52;100459.91;5049887;28;20034;-82
2023/09/19 02:27:23;;;;;;;14.65;6.40;;;;;;;16.76;77.33;100455.72;5050110;28;20397;-82
2023/09/19 02:29:49;;;;;;;11.93;5.70;;;;;;;16.45;78.37;100449.13;5050735;28;20033;-82
2023/09/19 02:32:14;;;;;;;9.18;5.40;;;;;;;16.25;79.12;100428.94;5049660;28;20400;-82
2023/09/19 02:34:41;;;;;;;10.50;6.38;;;;;;;16.13;80.05;100457.00;5053922;28;20461;-83
2023/09/19 02:37:08;;;;;;;9.75;6.30;;;;;;;16.27;79.78;100460.97;5070145;28;20471;-80
2023/09/19 02:39:34;;;;;;;9.52;6.03;;;;;;;16.73;78.84;100461.59;5070964;28;20082;-82
2023/09/19 02:41:59;;;;;;;10.18;5.82;;;;;;;16.79;77.28;100439.03;5052229;28;20025;-82
2023/09/19 02:44:25;;;;;;;11.38;5.82;;;;;;;16.40;78.76;100436.38;5049541;28;20037;-82
2023/09/19 02:46:50;;;;;;;8.90;5.40;;;;;;;16.51;79.62;100445.44;5068957;28;20396;-83
2023/09/19 02:49:17;;;;;;;9.23;5.78;;;;;;;16.51;79.23;100440.06;5070561;28;20025;-82
2023/09/19 02:51:43;;;;;;;10.55;6.22;;;;;;;16.68;78.47;100448.06;5055572;28;20497;-85
2023/09/19 02:54:09;;;;;;;10.35;5.85;;;;;;;16.64;77.85;100446.94;5050481;28;20068;-84
2023/09/19 02:56:35;;;;;;;12.38;5.88;;;;;;;16.38;78.15;100411.59;5050736;28;20460;-86
2023/09/19 02:59:01;;;;;;;9.43;6.35;;;;;;;16.52;78.43;100432.78;5049189;28;20425;-82
2023/09/19 03:01:28;;;;;;;9.07;5.72;;;;;;;16.32;79.69;100444.88;5048231;28;20159;-82
2023/09/19 03:03:53;;;;;;;10.55;6.40;;;;;;;16.20;79.38;100436.09;5050902;28;20029;-84
2023/09/19 03:06:20;;;;;;;10.02;6.43;;;;;;;16.46;78.51;100456.13;5050798;28;20032;-81
2023/09/19 03:08:46;;;;;;;9.73;6.30;;;;;;;15.99;80.27;100419.66;5049307;28;20037;-83
2023/09/19 03:11:14;;;;;;;10.45;6.05;;;;;;;16.52;79.46;100432.78;5051231;28;20104;-82
2023/09/19 03:13:41;;;;;;;;;;;;;;;16.46;79.04;100446.16;5051022;28;20025;-82
2023/09/19 03:16:07;;;;;;;8.53;6.27;;;;;;;16.10;79.74;100419.81;5064451;28;20050;-86
2023/09/19 03:18:35;;;;;;;12.57;6.68;;;;;;;16.36;80.15;100434.44;5073971;28;20036;-82
2023/09/19 03:21:00;;;;;;;;;;;;;;;16.30;79.61;100463.16;5072163;28;20088;-82
2023/09/19 03:23:27;;;;;;;9.60;6.63;;;;;;;16.11;81.08;100441.09;5054543;28;19940;-81
2023/09/19 03:25:53;;;;;;;11.18;5.43;;;;;;;16.02;80.03;100413.00;5060409;28;20025;-82
2023/09/19 03:28:20;;;;;;;11.65;5.90;;;;;;;16.29;80.96;100458.03;5073138;28;20082;-81
2023/09/19 03:30:46;;;;;;;9.40;6.07;;;;;;;15.86;80.81;100428.06;5054219;28;20037;-87
2023/09/19 03:33:12;;;;;;;9.98;5.82;;;;;;;15.63;80.54;100400.25;5053893;28;20033;-82
2023/09/19 03:35:39;;;;;;;9.05;5.75;;;;;;;15.91;81.51;100438.91;5057232;28;20028;-82
2023/09/19 03:38:05;;;;;;;9.45;5.55;;;;;;;16.03;80.72;100442.31;5074193;28;20291;-81
2023/09/19 03:40:30;;;;;;;11.15;5.97;;;;;;;15.97;81.45;100437.91;5072662;28;20117;-83
2023/09/19 03:42:56;;;;;;;10.05;6.07;;;;;;;16.06;80.32;100441.84;5053265;28;20409;-82
2023/09/19 03:45:21;;;;;;;11.48;6.47;;;;;;;16.30;80.08;100463.16;5060805;28;20039;-82
2023/09/19 03:47:47;;;;;;;11.23;5.93;;;;;;;15.99;78.87;100441.19;5072595;28;20029;-83
2023/09/19 03:50:17;;;;;;;12.80;6.68;;;;;;;15.29;82.48;100444.28;5072437;28;20127;-82
2023/09/19 03:52:43;;;;;;;14.80;6.68;;;;;;;15.09;83.74;100442.03;5059164;28;20063;-84
2023/09/19 03:55:09;;;;;;;10.75;6.13;;;;;;;14.89;86.22;100453.16;5052290;28;20025;-86
2023/09/19 03:57:36;;;;;;;11.93;6.60;;;;;;;14.60;87.10;100455.78;5052644;28;20173;-88
2023/09/19 04:00:02;;;;;;;10.02;6.38;;;;;;;14.68;86.64;100444.69;5053675;28;20107;-88
2023/09/19 04:02:32;;;;;;;13.43;6.45;;;;;;;14.85;85.42;100442.91;5053398;28;20044;-83
2023/09/19 04:04:58;;;;;;;12.25;6.60;;;;;;;15.15;83.68;100458.00;5052095;28;20060;-83
2023/09/19 04:07:25;;;;;;;11.63;6.60;;;;;;;15.38;83.07;100467.81;5066684;28;20496;-83
2023/09/19 04:09:53;;;;;;;14.80;6.30;;;;;;;15.13;83.81;100454.72;5073157;28;20109;-84
2023/09/19 04:12:19;;;;;;;10.65;6.75;;;;;;;15.31;82.31;100452.91;5062545;28;20021;-83
2023/09/19 04:14:44;;;;;;;11.30;6.30;;;;;;;15.14;83.20;100460.91;5051772;28;20053;-84
2023/09/19 04:17:10;;;;;;;9.98;6.72;;;;;;;15.00;84.72;100474.63;5062288;28;20124;-86
2023/09/19 04:19:36;;;;;;;10.82;6.88;;;;;;;14.59;87.28;100475.66;5071702;28;20064;-83
2023/09/19 04:22:02;;;;;;;12.15;7.13;;;;;;;14.54;86.57;100454.84;5067874;28;20029;-84
2023/09/19 04:24:28;;;;;;;12.05;7.00;;;;;;;14.77;84.98;100445.97;5052602;28;20486;-83
2023/09/19 04:26:53;;;;;;;12.38;6.55;;;;;;;14.99;83.77;100445.31;5051370;28;20021;-83
2023/09/19 04:29:20;;;;;;;13.20;7.70;;;;;;;14.91;84.42;100440.31;5052754;28;20025;-83
2023/09/19 04:31:47;;;;;;;12.88;6.80;;;;;;;15.14;83.28;100461.75;5051460;28;20480;-87
2023/09/19 04:34:16;;;;;;;10.70;6.75;;;;;;;15.04;83.74;100459.66;5031604;28;20037;-87
2023/09/19 04:36:41;;;;;;;13.95;6.15;;;;;;;14.16;83.61;100474.94;5035600;28;20033;-83
2023/09/19 04:39:07;;;;;;;10.80;5.70;;;;;;;13.83;83.66;100468.25;5051175;28;20424;-84
2023/09/19 04:41:33;;;;;;;11.25;6.00;;;;;;;13.73;84.94;100473.34;5070408;28;20498;-82
2023/09/19 04:44:02;;;;;;;16.45;6.85;;;;;;;13.60;85.41;100452.91;5053704;28;20123;-86
2023/09/19 04:46:27;;;;;;;;;;;;;;;13.58;87.25;100481.78;5051588;28;20108;-86
2023/09/19 04:48:52;;;;;;;19.58;7.78;;;;;;;13.43;88.08;100478.72;5051055;28;19920;-82
2023/09/19 04:51:18;;;;;;;10.65;5.75;;;;;;;13.32;88.35;100455.38;5052094;28;20056;-81
2023/09/19 04:53:44;;;;;;;9.98;5.93;;;;;;;13.17;90.63;100447.72;5052182;28;20028;-87
2023/09/19 04:56:09;;;;;;;12.18;6.50;;;;;;;13.10;91.28;100447.81;5052146;28;20399;-82
2023/09/19 04:58:35;;;;;;;10.82;6.88;;;;;;;13.14;92.84;100451.69;5067902;28;20028;-81
2023/09/19 05:01:04;;;;;;;10.98;6.78;;;;;;;13.47;91.64;100469.19;5072255;28;20028;-81
2023/09/19 05:03:29;;;;;;;14.38;7.28;;;;;;;14.20;88.42;100483.31;5061160;28;20021;-82
2023/09/19 05:05:55;;;;;;;12.95;7.30;;;;;;;14.60;87.49;100482.63;5051747;28;20098;-81
2023/09/19 05:08:22;;;;;;;11.23;7.05;;;;;;;14.59;88.42;100446.13;5051033;28;20032;-88
2023/09/19 05:10:48;;;;;;;10.73;6.97;;;;;;;15.65;87.43;100461.81;5051901;28;20112;-83
2023/09/19 05:13:16;;;;;;;10.48;6.68;;;;;;;16.32;84.68;100495.22;5058651;28;20040;-79
2023/09/19 05:15:42;;;;;;;12.85;7.50;;;;;;;16.47;82.76;100463.16;5071891;28;20049;-79
2023/09/19 05:18:07;;;;;;;8.48;6.22;;;;;;;16.18;80.41;100465.13;5060761;28;20040;-80
2023/09/19 05:20:36;;;;;;;13.35;6.88;;;;;;;16.53;78.42;100489.09;5050773;28;20036;-80
2023/09/19 05:23:03;;;;;;;10.32;6.93;;;;;;;16.36;79.33;100447.91;5050870;28;20127;-82
2023/09/19 05:25:32;;;;;;;13.27;8.07;;;;;;;16.21;78.76;100452.00;5050745;28;20028;-81
2023/09/19 05:27:58;;;;;;;12.98;9.02;;;;;;;16.10;80.83;100470.94;5050425;28;20029;-82
2023/09/19 05:30:29;;;;;;;16.70;8.82;;;;;;;16.43;82.47;100468.22;5051469;28;20405;-85
2023/09/19 05:32:54;;;;;;;12.43;7.75;;;;;;;16.87;78.98;100487.13;5052189;28;20028;-87
2023/09/19 05:35:21;;;;;;;12.95;7.82;;;;;;;17.03;79.84;100474.66;5070026;28;20044;-85
2023/09/19 05:37:51;;;;;;;13.32;8.82;;;;;;;16.61;81.32;100474.34;5063339;28;20025;-81
2023/09/19 05:40:19;;;;;;;12.38;8.07;;;;;;;17.03;79.60;100468.47;5050282;28;20025;-81
2023/09/19 05:42:46;;;;;;;13.32;8.48;;;;;;;17.14;78.65;100466.69;5051532;28;20039;-85
2023/09/19 05:45:12;;;;;;;15.20;8.65;;;;;;;17.75;76.61;100479.97;5050169;28;20053;-81
2023/09/19 05:47:40;;;;;;;13.88;7.90;;;;;;;17.91;75.19;100457.47;5054135;28;20104;-84
2023/09/19 05:50:07;;;;;;;13.73;8.63;;;;;;;18.12;75.68;100481.91;5070373;28;20129;-81
2023/09/19 05:52:33;;;;;;;14.88;8.98;;;;;;;17.87;76.18;100475.25;5052309;28;20039;-85
2023/09/19 05:54:58;;;;;;;13.15;8.10;;;;;;;18.14;74.33;100447.38;5050033;28;20041;-81
2023/09/19 05:57:24;;;;;;;12.63;8.27;;;;;;;18.48;73.17;100459.47;5051664;28;20024;-80
2023/09/19 05:59:50;;;;;;;11.77;8.05;;;;;;;18.82;72.40;100480.75;5051122;28;20044;-81
2023/09/19 06:02:16;;;;;;;14.02;8.38;;;;;;;18.53;71.89;100449.78;5065639;28;20028;-81
2023/09/19 06:04:41;;;;;;;12.90;7.47;;;;;;;18.70;71.16;100472.03;5056294;28;20029;-81
2023/09/19 06:07:07;;;;;;;15.13;8.32;;;;;;;18.28;71.98;100443.97;5052901;28;20040;-80
2023/09/19 06:09:32;;;;;;;12.82;8.18;;;;;;;18.67;71.97;100483.34;5065937;28;20032;-80
2023/09/19 06:12:00;;;;;;;12.70;8.10;;;;;;;18.73;72.20;100457.97;5071298;28;20027;-80
2023/09/19 06:14:25;;;;;;;10.02;6.70;;;;;;;19.14;70.30;100477.06;5059539;28;20053;-79
2023/09/19 06:16:53;;;;;;;13.45;6.53;;;;;;;19.20;68.06;100446.25;5051015;28;20146;-82
2023/09/19 06:19:22;;;;;;;11.50;6.80;;;;;;;19.26;66.84;100453.31;5063875;28;20036;-82
2023/09/19 06:21:48;;;;;;;11.88;7.45;;;;;;;19.34;67.39;100459.28;5071004;28;20041;-80
2023/09/19 06:24:14;;;;;;;18.20;11.48;;;;;;;19.33;67.05;100465.75;5069579;28;20536;-82
2023/09/19 06:26:40;;;;;;;40.13;27.05;;;;;;;19.35;67.55;100459.03;5071012;28;20024;-81
2023/09/19 06:29:07;;;;;;;83.22;53.75;;;;;;;19.50;67.00;100462.84;5060099;28;20033;-81
2023/09/19 06:31:33;;;;;;;58.88;37.53;;;;;;;19.42;66.81;100450.66;5050446;28;20421;-81
2023/09/19 06:33:59;;;;;;;53.63;32.85;;;;;;;19.72;66.14;100476.16;5050817;28;20489;-82
2023/09/19 06:36:29;;;;;;;27.33;16.50;;;;;;;19.94;65.13;100473.16;5050699;28;20025;-83
2023/09/19 06:38:54;;;;;;;33.30;18.15;;;;;;;20.18;63.52;100486.94;5057558;28;20541;-84
2023/09/19 06:41:24;;;;;;;17.00;10.93;;;;;;;20.16;63.50;100475.59;5055326;28;20024;-81
2023/09/19 06:43:53;;;;;;;11.65;6.90;;;;;;;20.12;63.01;100455.56;5070778;28;20521;-81
2023/09/19 06:46:19;;;;;;;18.10;9.10;;;;;;;20.57;63.54;100489.03;5050503;28;20564;-81
2023/09/19 06:48:44;;;;;;;13.10;7.50;;;;;;;20.59;61.84;100479.56;5054833;28;20115;-83
2023/09/19 06:51:10;;;;;;;11.20;6.07;;;;;;;20.51;60.44;100454.91;5056937;28;20028;-81
2023/09/19 06:53:36;;;;;;;13.57;8.20;;;;;;;20.45;60.81;100473.91;5054691;28;20033;-83
2023/09/19 06:56:02;;;;;;;10.60;6.78;;;;;;;20.47;59.61;100463.63;5053008;28;20044;-85
2023/09/19 06:58:27;;;;;;;11.80;6.60;;;;;;;20.52;61.24;100448.44;5054002;28;20039;-83
2023/09/19 07:00:56;;;;;;;9.35;6.03;;;;;;;20.95;59.63;100454.25;5052922;28;20409;-87
2023/09/19 07:03:25;;;;;;;9.15;5.65;;;;;;;21.05;58.65;100456.91;5054115;28;20691;-82
2023/09/19 07:05:50;;;;;;;10.45;6.30;;;;;;;20.82;58.82;100423.94;5055023;28;20029;-81
2023/09/19 07:08:16;;;;;;;17.10;12.65;;;;;;;21.06;59.37;100445.78;5074673;28;20028;-81
2023/09/19 07:10:48;;;;;;;15.95;12.73;;;;;;;21.32;58.87;100431.25;5056705;28;20032;-84
2023/09/19 07:13:16;;;;;;;29.48;23.80;;;;;;;21.60;59.01;100468.53;5054398;28;20032;-82
2023/09/19 07:15:49;;;;;;;7.93;6.38;;;;;;;21.50;59.29;100449.63;5053051;28;20076;-84
2023/09/19 07:18:19;;;;;;;8.27;5.68;;;;;;;21.41;58.58;100451.25;5052995;28;20108;-85
2023/09/19 07:20:49;;;;;;;22.30;19.38;;;;;;;21.65;58.88;100452.19;5069571;28;20056;-84
2023/09/19 07:23:23;;;;;;;11.82;7.32;;;;;;;21.67;58.34;100455.44;5074472;28;20078;-83
2023/09/19 07:25:49;;;;;;;12.38;8.13;;;;;;;21.64;58.54;100445.16;5063005;28;20673;-81
2023/09/19 07:28:16;;;;;;;10.80;5.32;;;;;;;22.13;57.38;100467.81;5054250;28;20103;-82
2023/09/19 07:30:41;;;;;;;10.13;6.13;;;;;;;21.94;58.19;100456.03;5067959;28;20056;-82
2023/09/19 07:33:07;;;;;;;8.90;5.40;;;;;;;21.92;58.33;100460.94;5074052;28;20469;-82
2023/09/19 07:35:33;;;;;;;7.93;4.45;;;;;;;22.02;59.20;100461.66;5065515;28;20032;-82
2023/09/19 07:38:01;;;;;;;6.97;4.40;;;;;;;22.12;58.00;100441.75;5060781;28;20083;-82
2023/09/19 07:40:28;;;;;;;9.13;4.82;;;;;;;21.98;57.54;100436.16;5054094;28;20109;-81
2023/09/19 07:42:56;;;;;;;8.75;4.90;;;;;;;22.05;59.31;100428.50;5052481;28;20037;-81
2023/09/19 07:45:22;;;;;;;8.13;5.05;;;;;;;22.18;59.54;100435.16;5052456;28;20021;-84
2023/09/19 07:47:49;;;;;;;9.40;5.70;;;;;;;22.51;57.39;100450.88;5053716;28;20025;-81
2023/09/19 07:50:16;;;;;;;7.25;4.90;;;;;;;22.94;55.50;100440.03;5052888;28;20029;-84
2023/09/19 07:52:42;;;;;;;8.33;5.60;;;;;;;22.83;56.63;100448.31;5052876;28;20437;-82
2023/09/19 07:55:08;;;;;;;8.73;4.65;;;;;;;23.03;54.85;100435.59;5052415;28;20025;-82
2023/09/19 07:57:35;;;;;;;7.13;4.68;;;;;;;23.13;54.11;100407.41;5054215;28;20033;-82
2023/09/19 08:00:04;;;;;;;10.80;5.53;;;;;;;23.37;54.06;100423.66;5058582;28;20028;-84
2023/09/19 08:02:30;;;;;;;8.10;5.10;;;;;;;23.40;54.36;100412.19;5073903;28;20029;-83
2023/09/19 08:04:58;;;;;;;10.95;7.05;;;;;;;23.59;52.83;100404.00;5071391;28;20403;-83
2023/09/19 08:07:24;;;;;;;13.52;7.95;;;;;;;23.47;54.52;100396.28;5072711;28;20067;-83
2023/09/19 08:09:49;;;;;;;24.58;15.35;;;;;;;23.98;50.59;100410.97;5065283;28;20159;-83
2023/09/19 08:12:14;;;;;;;8.50;5.30;;;;;;;23.73;52.97;100420.38;5059119;28;20061;-85
2023/09/19 08:14:41;;;;;;;12.90;9.90;;;;;;;23.72;51.50;100402.41;5077944;28;20044;-86
2023/09/19 08:17:08;;;;;;;7.82;5.20;;;;;;;24.22;50.87;100433.41;5062996;28;20029;-83
2023/09/19 08:19:33;;;;;;;8.93;5.68;;;;;;;23.89;51.97;100407.34;5074702;28;20120;-90
2023/09/19 08:21:59;;;;;;;10.57;6.30;;;;;;;24.37;49.12;100406.97;5060310;28;20068;-83
2023/09/19 08:24:28;;;;;;;9.90;5.88;;;;;;;24.61;48.79;100418.47;5059315;28;20033;-84
2023/09/19 08:26:57;;;;;;;13.52;7.95;;;;;;;23.97;48.66;100388.38;5074361;28;20028;-85
2023/09/19 08:29:27;;;;;;;12.95;7.53;;;;;;;24.44;48.14;100416.34;5066024;28;20081;-83
2023/09/19 08:31:59;;;;;;;11.55;6.80;;;;;;;24.84;46.82;100427.53;5063419;28;20037;-84
2023/09/19 08:34:27;;;;;;;7.35;4.60;;;;;;;24.76;45.36;100411.91;5060089;28;20090;-90
2023/09/19 08:36:57;;;;;;;10.55;6.30;;;;;;;25.06;45.62;100394.03;5058511;28;20028;-83
2023/09/19 08:39:24;;;;;;;10.77;7.22;;;;;;;25.63;42.68;100399.00;5062392;28;20028;-82
2023/09/19 08:41:49;;;;;;;8.38;5.35;;;;;;;25.52;44.06;100381.25;5079538;28;20037;-84
2023/09/19 08:44:15;;;;;;;8.30;4.97;;;;;;;25.29;42.65;100394.09;5078844;28;20032;-84
2023/09/19 08:46:43;;;;;;;8.50;5.43;;;;;;;25.59;41.69;100376.16;5068362;28;20028;-83
2023/09/19 08:49:22;;;;;;;;;;;;;;;25.54;43.00;100379.03;5057234;28;20040;-82
2023/09/19 08:51:57;;;;;;;12.88;4.82;;;;;;;25.75;42.06;100368.38;5064715;28;19935;-82
2023/09/19 08:54:27;;;;;;;6.82;4.45;;;;;;;26.16;41.28;100380.16;5065986;28;20033;-83
2023/09/19 08:56:56;;;;;;;9.35;4.55;;;;;;;26.31;39.84;100390.66;5065353;28;20021;-82
2023/09/19 08:59:26;;;;;;;7.57;4.32;;;;;;;26.32;40.51;100375.88;5073569;28;20043;-87
2023/09/19 09:01:53;;;;;;;6.78;4.13;;;;;;;26.24;41.15;100376.66;5060564;28;20047;-83
2023/09/19 09:04:22;;;;;;;7.40;4.38;;;;;;;26.06;40.22;100365.66;5053095;28;20409;-81
2023/09/19 09:06:53;;;;;;;7.63;4.35;;;;;;;26.62;39.21;100362.44;5055196;28;20033;-82
2023/09/19 09:09:18;;;;;;;8.00;4.28;;;;;;;26.74;38.55;100365.34;5052367;28;20025;-84
2023/09/19 09:11:51;;;;;;;6.90;4.43;;;;;;;26.98;37.93;100353.16;5051643;28;20036;-83
2023/09/19 09:14:21;;;;;;;8.38;4.13;;;;;;;26.83;37.39;100351.69;5052859;28;20067;-82
2023/09/19 09:16:48;;;;;;;9.40;4.50;;;;;;;26.52;39.38;100332.63;5051386;28;20071;-86
2023/09/19 09:19:16;;;;;;;6.40;4.18;;;;;;;25.95;39.72;100312.41;5051294;28;20029;-82
2023/09/19 09:21:42;;;;;;;6.90;4.40;;;;;;;26.46;38.86;100332.81;5061596;28;20059;-83
2023/09/19 09:24:29;;;;;;;7.72;4.40;;;;;;;26.30;39.10;100350.78;5071942;28;20396;-83
2023/09/19 09:26:58;;;;;;;6.18;4.20;;;;;;;26.23;39.07;100353.16;5065264;28;20135;-82
2023/09/19 09:29:43;;;;;;;8.68;5.30;;;;;;;26.25;39.97;100321.66;5050797;28;20387;-82
2023/09/19 09:32:25;;;;;;;7.38;4.22;;;;;;;26.98;38.50;100344.94;5052169;28;20032;-83
2023/09/19 09:34:58;;;;;;;7.55;3.67;;;;;;;26.37;38.51;100331.97;5052542;28;20033;-82
2023/09/19 09:37:29;;;;;;;7.63;4.40;;;;;;;26.81;38.29;100321.13;5050822;28;20485;-82
2023/09/19 09:42:40;;;;;;;8.27;4.00;;;;;;;27.04;37.92;100308.84;5066070;28;20107;-83
2023/09/19 09:48:14;;;;;;;8.07;3.90;;;;;;;27.52;36.36;100312.47;5057385;28;20590;-82
2023/09/19 09:50:56;;;;;;;8.95;3.58;;;;;;;26.89;36.64;100314.00;5051728;28;20024;-85
2023/09/19 09:53:37;;;;;;;7.28;4.03;;;;;;;26.76;36.42;100280.22;5050143;28;20087;-83
2023/09/19 09:56:09;;;;;;;8.77;3.60;;;;;;;27.58;35.57;100308.47;5051272;28;20039;-82
2023/09/19 09:58:36;;;;;;;5.65;3.40;;;;;;;27.70;36.31;100301.47;5050489;28;20108;-88
2023/09/19 10:01:08;;;;;;;8.35;3.20;;;;;;;27.81;35.22;100297.25;5050386;28;20524;-86
2023/09/19 10:03:47;;;;;;;6.40;3.30;;;;;;;27.78;35.01;100297.91;5070737;28;20070;-86
2023/09/19 10:06:28;;;;;;;8.05;3.38;;;;;;;27.87;35.17;100303.38;5070258;28;20025;-84
2023/09/19 10:11:39;;;;;;;6.00;3.67;;;;;;;28.12;33.99;100301.66;5051572;28;20129;-83
2023/09/19 10:14:06;;;;;;;7.55;3.40;;;;;;;28.25;33.73;100300.56;5051062;28;20025;-83
2023/09/19 10:16:34;;;;;;;7.35;3.13;;;;;;;28.24;32.99;100318.19;5051784;28;20107;-81
2023/09/19 10:19:06;;;;;;;6.50;3.78;;;;;;;28.47;33.12;100317.88;5051443;28;20045;-82
2023/09/19 10:21:33;;;;;;;5.78;3.13;;;;;;;28.54;32.26;100304.44;5051270;28;20406;-83
2023/09/19 10:23:59;;;;;;;7.22;3.05;;;;;;;28.89;31.44;100290.44;5070998;28;20025;-82
2023/09/19 10:26:30;;;;;;;7.47;3.20;;;;;;;29.21;29.81;100291.59;5071214;28;20036;-83
2023/09/19 10:28:59;;;;;;;6.18;3.10;;;;;;;29.25;29.99;100293.34;5053692;28;20036;-84
2023/09/19 10:31:27;;;;;;;5.40;2.80;;;;;;;28.74;30.68;100289.13;5049247;28;20128;-83
2023/09/19 10:33:55;;;;;;;6.40;3.22;;;;;;;28.39;31.46;100261.94;5068363;28;20394;-83
2023/09/19 10:36:25;;;;;;;5.63;3.58;;;;;;;27.97;31.65;100279.16;5057805;28;20057;-82
2023/09/19 10:38:56;;;;;;;8.48;4.45;;;;;;;28.25;31.63;100271.22;5051141;28;20025;-82
2023/09/19 10:41:22;;;;;;;7.90;4.78;;;;;;;28.12;31.54;100274.22;5050672;28;20021;-83
2023/09/19 10:43:48;;;;;;;9.57;4.63;;;;;;;28.70;30.58;100261.53;5050989;28;20106;-82
2023/09/19 10:46:14;;;;;;;6.47;3.50;;;;;;;28.49;29.78;100263.47;5050800;28;20021;-80
2023/09/19 10:48:43;;;;;;;6.22;4.10;;;;;;;29.49;29.58;100264.31;5050991;28;20093;-81
2023/09/19 10:51:13;;;;;;;7.55;3.70;;;;;;;29.65;28.54;100250.72;5050992;28;20060;-81
2023/09/19 10:53:50;;;;;;;7.05;4.03;;;;;;;29.66;28.14;100246.78;5064434;28;20056;-81
2023/09/19 10:56:27;;;;;;;;;;;;;;;29.92;28.40;100260.22;5071485;28;20060;-81
2023/09/19 10:59:12;;;;;;;17.50;3.20;;;;;;;29.52;30.73;100241.63;5058792;28;20016;-80
2023/09/19 11:01:47;;;;;;;19.95;3.60;;;;;;;29.49;29.21;100247.84;5049256;28;20115;-82
2023/09/19 11:04:30;;;;;;;6.72;3.00;;;;;;;30.18;28.21;100239.78;5065942;28;20052;-80
2023/09/19 11:07:14;;;;;;;5.93;2.75;;;;;;;30.15;27.88;100243.25;5070645;28;20048;-85
2023/09/19 11:10:01;;;;;;;6.60;2.80;;;;;;;29.51;28.07;100223.56;5053894;28;20025;-80
2023/09/19 11:12:35;;;;;;;5.93;2.80;;;;;;;28.53;28.83;100234.28;5049515;28;20028;-81
2023/09/19 11:15:05;;;;;;;4.03;2.80;;;;;;;28.41;28.48;100221.25;5051014;28;20555;-80
2023/09/19 11:17:31;;;;;;;6.05;3.00;;;;;;;27.82;29.32;100222.91;5049453;28;20485;-82
2023/09/19 11:22:48;;;;;;;7.68;3.35;;;;;;;27.92;29.89;100221.75;5050710;28;20036;-81
2023/09/19 11:28:12;;;;;;;5.38;3.38;;;;;;;27.63;30.16;100219.81;5050339;28;20037;-84
2023/09/19 11:30:39;;;;;;;5.32;2.95;;;;;;;27.20;29.83;100196.91;5045658;28;20670;-81
2023/09/19 11:33:33;;;;;;;6.45;3.25;;;;;;;27.02;29.80;100206.31;5037193;28;20029;-84
2023/09/19 11:36:14;;;;;;;4.72;2.95;;;;;;;27.33;30.02;100178.69;5071270;28;20032;-81
2023/09/19 11:38:46;;;;;;;7.05;2.95;;;;;;;27.76;29.37;100193.31;5069639;28;20025;-81
2023/09/19 11:41:20;;;;;;;6.07;3.30;;;;;;;27.58;29.30;100195.31;5054319;28;20021;-82
2023/09/19 11:43:47;;;;;;;6.18;3.10;;;;;;;27.92;29.68;100161.47;5060792;28;20100;-82